Time;durP1;ratioP1;P1;durP2;ratioP2;P2;SDS_P1;SDS_P2;PMS_P1;PMS_P2;Temp;Humidity;BMP_temperature;BMP_pressure;BME280_temperature;BME280_humidity;BME280_pressure;Samples;Min_cycle;Max_cycle;Signal;HPM_P1;HPM_P2
2022/12/15 00:39:33;;;;;;;74.13;35.08;;;;;;;-3.00;95.54;94756.97;2041728;29;20059;-55
2022/12/15 00:40:34;;;;;;;74.65;36.85;;;;;;;-3.01;95.46;94755.31;2041247;29;20472;-56
2022/12/15 00:41:35;;;;;;;80.88;36.05;;;;;;;-3.05;95.18;94756.22;2042186;29;20044;-64
2022/12/15 00:42:36;;;;;;;86.63;40.70;;;;;;;-3.16;95.04;94752.13;2042153;29;20066;-64
2022/12/15 00:43:37;;;;;;;81.57;37.00;;;;;;;-3.07;95.60;94760.47;2041877;29;20420;-64
2022/12/15 00:44:38;;;;;;;78.45;36.63;;;;;;;-2.99;95.28;94762.06;2042231;29;20051;-65
2022/12/15 00:46:59;;;;;;;87.35;39.25;;;;;;;-2.93;95.58;94764.50;2042021;29;20483;-60
2022/12/15 00:48:00;;;;;;;83.50;40.40;;;;;;;-3.05;94.96;94756.22;2041436;29;20041;-60
2022/12/15 00:49:01;;;;;;;78.00;37.95;;;;;;;-3.00;95.28;94775.59;2041380;29;20051;-60
2022/12/15 01:20:56;;;;;;;73.10;35.17;;;;;;;-3.21;94.29;94789.44;2041656;29;20518;-55
2022/12/15 01:21:57;;;;;;;69.47;33.17;;;;;;;-3.24;93.85;94798.78;2042229;29;20407;-64
2022/12/15 01:22:58;;;;;;;71.40;35.22;;;;;;;-3.20;93.82;94798.75;2042278;29;20028;-65
2022/12/15 01:23:59;;;;;;;82.63;36.08;;;;;;;-3.20;94.03;94797.91;2040974;29;20048;-64
2022/12/15 01:25:00;;;;;;;83.82;37.08;;;;;;;-3.21;94.49;94806.38;2041570;29;20475;-64
2022/12/15 01:26:01;;;;;;;77.18;37.42;;;;;;;-3.23;94.08;94800.50;2042235;29;20039;-64
2022/12/15 01:27:02;;;;;;;76.85;37.65;;;;;;;-3.20;94.27;94801.28;2041782;29;20050;-64
2022/12/15 01:28:04;;;;;;;81.18;37.42;;;;;;;-3.16;94.03;94802.06;2041815;29;20047;-64
2022/12/15 01:29:05;;;;;;;79.00;36.83;;;;;;;-3.16;93.89;94815.59;2041784;29;20051;-64
2022/12/15 01:30:06;;;;;;;83.03;37.60;;;;;;;-3.14;94.29;94818.97;2041973;29;20400;-64
2022/12/15 01:31:10;;;;;;;76.85;34.78;;;;;;;-3.11;93.66;94811.31;2042037;29;20490;-64
2022/12/15 01:32:11;;;;;;;85.35;38.30;;;;;;;-3.21;94.26;94812.28;2041702;29;20051;-65
2022/12/15 01:33:13;;;;;;;82.68;39.10;;;;;;;-3.43;93.80;94793.94;2041966;29;20039;-64
2022/12/15 01:34:15;;;;;;;81.15;37.22;;;;;;;-3.42;94.26;94810.00;2042085;29;20059;-64
2022/12/15 01:35:16;;;;;;;84.20;37.63;;;;;;;-3.39;94.17;94818.44;2041195;29;20040;-65
2022/12/15 01:36:17;;;;;;;81.75;37.63;;;;;;;-3.43;94.86;94826.94;2041838;29;20122;-64
2022/12/15 01:37:18;;;;;;;89.32;37.75;;;;;;;-3.38;94.73;94824.38;2041437;29;20050;-64
2022/12/15 01:38:19;;;;;;;85.03;37.40;;;;;;;-3.30;94.88;94820.03;2041453;29;20051;-64
2022/12/15 01:39:20;;;;;;;86.10;38.88;;;;;;;-3.28;94.95;94818.31;2041293;29;20152;-64
2022/12/15 01:41:41;;;;;;;82.45;36.97;;;;;;;-3.30;94.92;94812.41;2041609;29;20052;-65
2022/12/15 01:42:43;;;;;;;84.32;38.65;;;;;;;-3.27;95.00;94814.06;2041513;29;20055;-64
2022/12/15 01:43:45;;;;;;;77.22;40.00;;;;;;;-3.23;94.55;94815.72;2041824;29;20051;-64
2022/12/15 01:44:48;;;;;;;87.65;39.38;;;;;;;-3.25;95.34;94807.28;2041468;29;20058;-64
2022/12/15 01:45:56;;;;;;;77.70;36.88;;;;;;;-3.20;95.41;94813.97;2048740;29;20047;-64
2022/12/15 01:46:57;;;;;;;81.68;37.92;;;;;;;-3.20;94.49;94808.06;2047630;29;20102;-64
2022/12/15 01:48:09;;;;;;;83.15;38.55;;;;;;;-3.19;95.19;94807.19;2041342;29;20043;-64
2022/12/15 01:49:17;;;;;;;88.80;40.50;;;;;;;-3.21;95.00;94807.19;2041106;29;20054;-64
2022/12/15 01:50:18;;;;;;;86.28;38.90;;;;;;;-3.22;95.00;94812.31;2041333;29;20047;-64
2022/12/15 01:51:28;;;;;;;85.72;39.38;;;;;;;-3.24;95.11;94814.88;2025867;29;20059;-64
2022/12/15 01:52:29;;;;;;;86.35;38.75;;;;;;;-3.23;95.13;94825.88;2034175;29;20052;-64
2022/12/15 01:53:32;;;;;;;78.70;39.15;;;;;;;-3.34;94.45;94819.25;2041184;29;20412;-66
2022/12/15 01:54:34;;;;;;;84.93;39.28;;;;;;;-3.31;94.81;94823.44;2041016;29;20071;-64
2022/12/15 01:55:35;;;;;;;82.05;38.00;;;;;;;-3.36;94.42;94828.56;2033369;29;20052;-64
2022/12/15 01:56:39;;;;;;;79.60;39.58;;;;;;;-3.31;94.37;94818.38;2032595;29;20082;-64
2022/12/15 01:57:40;;;;;;;83.15;39.05;;;;;;;-3.25;94.68;94835.22;2041204;29;20043;-64
2022/12/15 01:58:42;;;;;;;81.80;40.03;;;;;;;-3.22;94.24;94825.84;2041094;29;20408;-65
2022/12/15 01:59:49;;;;;;;90.75;42.72;;;;;;;-3.28;94.49;94825.94;2025455;29;20052;-64
2022/12/15 02:00:50;;;;;;;85.05;41.17;;;;;;;-3.30;94.69;94834.44;2027349;29;20060;-64
2022/12/15 02:01:51;;;;;;;81.65;37.28;;;;;;;-3.37;94.57;94834.50;2041277;29;20047;-64
2022/12/15 02:02:53;;;;;;;83.85;39.17;;;;;;;-3.28;94.19;94833.56;2041947;29;20055;-64
2022/12/15 02:03:54;;;;;;;90.38;39.10;;;;;;;-3.33;94.52;94835.31;2040621;29;20051;-64
2022/12/15 02:04:56;;;;;;;77.97;37.78;;;;;;;-3.31;94.37;94831.06;2033613;29;20051;-64
2022/12/15 02:05:57;;;;;;;80.47;38.65;;;;;;;-3.25;94.27;94830.97;2032967;29;20468;-64
2022/12/15 02:13:17;;;;;;;77.65;35.67;;;;;;;-3.26;93.87;94841.13;2060663;23;20820;-60
2022/12/15 02:14:57;;;;;;;77.10;36.22;;;;;;;-3.38;93.59;94832.81;2048834;29;20063;-60
2022/12/15 02:16:04;;;;;;;74.65;33.75;;;;;;;-3.24;93.53;94857.19;2054527;28;20047;-60
2022/12/15 02:17:27;;;;;;;72.00;32.78;;;;;;;-3.26;93.43;94866.53;2041650;29;20059;-60
2022/12/15 02:18:36;;;;;;;71.57;32.53;;;;;;;-3.41;93.52;94839.63;2050371;28;20069;-59
2022/12/15 02:19:57;;;;;;;72.75;34.80;;;;;;;-3.35;93.38;94870.84;2049061;29;20090;-60
2022/12/15 02:21:09;;;;;;;75.28;35.88;;;;;;;-3.51;94.19;94843.97;2045568;28;20051;-59
2022/12/15 02:22:28;;;;;;;70.78;34.13;;;;;;;-3.38;93.58;94873.44;2056626;28;20054;-60
2022/12/15 02:23:38;;;;;;;75.05;34.88;;;;;;;-3.29;93.75;94871.66;2051995;28;20048;-60
2022/12/15 02:24:59;;;;;;;75.80;34.20;;;;;;;-3.37;93.43;94864.97;2057204;28;20039;-60
2022/12/15 02:26:03;;;;;;;67.38;33.50;;;;;;;-3.30;93.34;94868.28;2057211;28;20497;-60
2022/12/15 02:27:11;;;;;;;70.28;34.15;;;;;;;-3.41;92.81;94849.78;2056811;28;20051;-60
2022/12/15 02:28:16;;;;;;;70.60;34.37;;;;;;;-3.32;92.97;94863.19;2057776;28;20039;-60
2022/12/15 02:29:49;;;;;;;68.15;32.53;;;;;;;-3.33;92.44;94866.59;2049524;28;20285;-59
2022/12/15 02:32:15;;;;;;;68.13;31.98;;;;;;;-3.35;93.14;94867.47;2051236;28;20054;-60
2022/12/15 02:33:20;;;;;;;67.60;32.10;;;;;;;-3.33;93.09;94866.59;2057745;28;20050;-60
2022/12/15 02:34:34;;;;;;;65.50;32.25;;;;;;;-3.54;93.13;94844.00;2056956;28;20043;-59
2022/12/15 02:35:39;;;;;;;69.75;33.72;;;;;;;-3.56;92.92;94859.25;2051079;28;20039;-60
2022/12/15 02:36:45;;;;;;;69.03;33.08;;;;;;;-3.79;93.05;94851.06;2051097;28;20055;-59
2022/12/15 02:37:46;;;;;;;64.95;32.55;;;;;;;-3.74;93.31;94844.22;2042332;29;20522;-60
2022/12/15 02:38:47;;;;;;;65.32;32.40;;;;;;;-3.56;93.77;94873.63;2033583;29;20044;-60
2022/12/15 02:39:48;;;;;;;67.63;32.67;;;;;;;-3.59;93.41;94858.44;2049037;28;20051;-60
2022/12/15 02:40:56;;;;;;;67.53;32.45;;;;;;;-3.48;93.09;94876.09;2057865;28;20069;-60
2022/12/15 02:41:57;;;;;;;68.13;32.92;;;;;;;-3.49;93.46;94871.88;2057951;28;20035;-60
2022/12/15 02:42:59;;;;;;;63.83;31.83;;;;;;;-3.49;92.88;94875.25;2057813;28;20045;-60
2022/12/15 02:44:01;;;;;;;65.10;30.98;;;;;;;-3.57;92.95;94874.50;2057553;28;20049;-60
2022/12/15 02:45:04;;;;;;;67.40;33.05;;;;;;;-3.58;93.28;94878.75;2057770;28;20049;-59
2022/12/15 02:46:10;;;;;;;61.50;30.13;;;;;;;-3.66;93.30;94854.28;2057614;28;20470;-60
2022/12/15 02:47:31;;;;;;;69.78;32.45;;;;;;;-3.59;93.59;94886.34;2056975;28;20046;-60
2022/12/15 02:48:57;;;;;;;68.40;30.98;;;;;;;-3.63;93.59;94885.56;2057453;28;20053;-60
2022/12/15 02:50:00;;;;;;;71.18;31.42;;;;;;;-3.68;94.31;94892.38;2064999;28;20046;-60
2022/12/15 02:51:16;;;;;;;67.22;29.75;;;;;;;-3.73;93.56;94870.44;2064917;28;20041;-60
2022/12/15 02:52:35;;;;;;;71.88;33.10;;;;;;;-3.61;92.93;94895.66;2049383;28;20051;-59
2022/12/15 02:53:47;;;;;;;65.40;30.35;;;;;;;-3.53;93.49;94898.13;2054584;28;20051;-60
2022/12/15 02:55:18;;;;;;;67.70;31.98;;;;;;;-3.58;93.43;94886.34;2049383;28;20054;-60
2022/12/15 02:56:30;;;;;;;75.30;32.13;;;;;;;-3.51;92.83;94888.81;2055722;28;20046;-60
2022/12/15 02:57:43;;;;;;;67.05;32.88;;;;;;;-3.61;93.19;94888.94;2058603;28;20395;-59
2022/12/15 02:59:12;;;;;;;79.15;34.22;;;;;;;-3.73;93.11;94868.72;2058213;28;20051;-60
2022/12/15 03:00:13;;;;;;;72.43;32.78;;;;;;;-3.57;93.45;94882.13;2050848;29;20459;-60
2022/12/15 03:01:33;;;;;;;67.38;34.92;;;;;;;-3.48;93.09;94888.78;2051193;28;20054;-60
2022/12/15 03:02:36;;;;;;;69.97;33.42;;;;;;;-3.68;93.29;94863.63;2050494;29;20047;-60
2022/12/15 03:03:37;;;;;;;70.15;33.13;;;;;;;-3.54;92.92;94887.16;2042870;29;20067;-60
2022/12/15 03:04:39;;;;;;;71.68;32.47;;;;;;;-3.66;93.23;94866.97;2042733;28;20518;-60
2022/12/15 03:05:40;;;;;;;68.05;33.08;;;;;;;-3.54;93.26;94874.47;2058718;28;20051;-60
2022/12/15 03:06:41;;;;;;;76.60;35.30;;;;;;;-3.59;93.04;94883.81;2050574;29;20046;-60
2022/12/15 03:07:42;;;;;;;70.30;34.00;;;;;;;-3.60;93.17;94882.16;2042619;29;20050;-56
2022/12/15 03:08:43;;;;;;;71.05;35.00;;;;;;;-3.61;93.42;94893.13;2058460;28;20532;-56
2022/12/15 03:09:44;;;;;;;69.28;35.28;;;;;;;-3.56;93.45;94888.84;2059001;28;20046;-55
2022/12/15 03:10:46;;;;;;;76.60;35.40;;;;;;;-3.50;93.07;94886.28;2059187;28;20059;-56
2022/12/15 03:11:47;;;;;;;68.32;32.75;;;;;;;-3.53;92.61;94888.81;2049484;29;20419;-57
2022/12/15 03:12:49;;;;;;;74.93;34.72;;;;;;;-3.53;92.65;94893.91;2050430;28;20438;-56
2022/12/15 03:13:50;;;;;;;74.93;37.17;;;;;;;-3.59;93.33;94899.03;2058386;28;20055;-56
2022/12/15 03:14:51;;;;;;;71.47;32.33;;;;;;;-3.56;93.04;94899.00;2050416;29;20047;-56
2022/12/15 03:15:53;;;;;;;77.97;36.42;;;;;;;-3.55;93.38;94900.72;2050087;28;20063;-56
2022/12/15 03:16:54;;;;;;;68.65;33.15;;;;;;;-3.48;92.81;94902.31;2059161;28;20050;-58
2022/12/15 03:17:55;;;;;;;80.35;37.63;;;;;;;-3.47;93.45;94898.09;2059256;28;20055;-60
2022/12/15 03:18:56;;;;;;;73.60;34.22;;;;;;;-3.48;93.01;94909.91;2059183;28;20054;-60
2022/12/15 03:19:57;;;;;;;73.00;36.88;;;;;;;-3.51;92.58;94904.03;2058831;28;20054;-60
2022/12/15 03:20:58;;;;;;;74.78;34.42;;;;;;;-3.74;93.41;94896.66;2058795;28;20066;-60
2022/12/15 03:22:00;;;;;;;75.47;34.30;;;;;;;-3.67;93.58;94910.97;2059059;28;20046;-60
2022/12/15 03:23:01;;;;;;;78.57;36.83;;;;;;;-3.57;93.46;94908.31;2058825;28;20047;-60
2022/12/15 03:24:02;;;;;;;71.70;33.92;;;;;;;-3.50;93.33;94915.88;2059081;28;20054;-60
2022/12/15 03:25:03;;;;;;;73.47;34.13;;;;;;;-3.60;92.96;94905.00;2058234;28;20061;-60
2022/12/15 03:26:05;;;;;;;79.60;38.25;;;;;;;-3.69;93.18;94888.13;2058807;28;20054;-60
2022/12/15 03:27:06;;;;;;;74.47;35.53;;;;;;;-3.52;92.85;94905.75;2059039;28;20497;-60
2022/12/15 03:28:07;;;;;;;77.30;35.75;;;;;;;-3.59;93.37;94899.88;2059232;28;20049;-60
2022/12/15 03:29:08;;;;;;;76.35;35.17;;;;;;;-3.57;93.20;94903.25;2059167;28;20054;-60
2022/12/15 03:30:10;;;;;;;76.50;35.75;;;;;;;-3.53;92.90;94923.53;2058732;28;20482;-60
2022/12/15 03:31:11;;;;;;;75.82;35.97;;;;;;;-3.49;93.29;94928.56;2059188;28;20039;-60
2022/12/15 03:32:12;;;;;;;80.32;37.40;;;;;;;-3.59;92.89;94924.41;2059053;28;20066;-58
2022/12/15 03:33:13;;;;;;;81.57;35.15;;;;;;;-3.75;93.20;94923.72;2058892;28;20051;-59
2022/12/15 03:34:14;;;;;;;77.18;35.83;;;;;;;-3.70;93.43;94922.00;2059175;28;20059;-59
2022/12/15 03:35:16;;;;;;;75.95;36.10;;;;;;;-3.68;93.72;94915.22;2059129;28;20059;-59
2022/12/15 03:36:17;;;;;;;81.32;37.55;;;;;;;-3.75;93.31;94892.44;2058974;28;20051;-58
2022/12/15 03:37:18;;;;;;;78.53;36.67;;;;;;;-3.65;93.17;94922.78;2058991;28;20065;-58
2022/12/15 03:38:19;;;;;;;82.13;37.60;;;;;;;-3.61;93.52;94928.66;2058768;28;20043;-59
2022/12/15 03:39:20;;;;;;;82.65;38.83;;;;;;;-3.61;93.88;94921.06;2058960;28;20406;-59
2022/12/15 03:40:21;;;;;;;81.93;37.67;;;;;;;-3.68;93.30;94922.81;2058808;28;20045;-59
2022/12/15 03:41:23;;;;;;;73.25;36.13;;;;;;;-3.82;93.43;94902.66;2058955;28;20050;-59
2022/12/15 03:43:45;;;;;;;77.65;35.78;;;;;;;-3.54;92.93;94927.75;2059120;28;20049;-59
2022/12/15 03:44:46;;;;;;;77.25;35.97;;;;;;;-3.58;93.16;94921.88;2058748;28;20038;-59
2022/12/15 03:45:47;;;;;;;79.20;35.92;;;;;;;-3.66;93.17;94915.19;2059074;28;20513;-59
2022/12/15 03:46:48;;;;;;;75.47;36.47;;;;;;;-3.55;93.22;94918.47;2059224;28;20055;-59
2022/12/15 03:47:49;;;;;;;72.93;35.08;;;;;;;-3.48;93.10;94925.16;2058974;28;20054;-59
2022/12/15 03:48:50;;;;;;;83.82;38.63;;;;;;;-3.49;92.85;94925.19;2058901;28;20054;-59
2022/12/15 03:49:51;;;;;;;80.65;37.42;;;;;;;-3.47;93.42;94926.84;2059019;28;20054;-59
2022/12/15 03:50:52;;;;;;;84.38;38.58;;;;;;;-3.55;93.13;94928.63;2058898;28;20166;-59
2022/12/15 03:51:54;;;;;;;71.45;35.28;;;;;;;-3.48;92.90;94930.22;2058978;28;20065;-63
2022/12/15 03:52:57;;;;;;;78.32;36.72;;;;;;;-3.57;93.23;94915.94;2058684;28;20045;-65
2022/12/15 03:53:58;;;;;;;76.65;36.03;;;;;;;-3.59;92.96;94920.19;2058709;28;20047;-64
2022/12/15 03:54:59;;;;;;;72.80;36.15;;;;;;;-3.69;93.49;94923.66;2058885;28;20050;-64
2022/12/15 03:56:00;;;;;;;75.45;37.40;;;;;;;-3.59;92.98;94919.34;2058730;28;20091;-64
2022/12/15 03:57:02;;;;;;;77.93;37.33;;;;;;;-3.64;93.20;94916.84;2059350;28;20059;-61
2022/12/15 03:58:03;;;;;;;78.45;36.72;;;;;;;-3.59;93.48;94911.72;2058514;28;20049;-60
2022/12/15 03:59:04;;;;;;;75.43;34.17;;;;;;;-3.67;93.30;94900.81;2058727;28;20061;-60
2022/12/15 04:00:06;;;;;;;80.50;40.33;;;;;;;-3.55;93.02;94910.84;2058921;28;20042;-60
2022/12/15 04:01:32;;;;;;;76.53;34.63;;;;;;;-3.58;93.44;94913.44;2058702;28;20047;-60
2022/12/15 04:02:33;;;;;;;72.45;34.50;;;;;;;-3.57;93.10;94912.56;2058988;28;20047;-59
2022/12/15 04:03:35;;;;;;;81.03;36.47;;;;;;;-3.59;93.04;94915.09;2058904;28;20072;-59
2022/12/15 04:04:36;;;;;;;74.57;35.25;;;;;;;-3.66;93.31;94910.97;2059029;28;20062;-60
2022/12/15 04:05:37;;;;;;;80.57;36.35;;;;;;;-3.65;93.68;94904.19;2058781;28;20046;-60
2022/12/15 04:06:38;;;;;;;72.32;36.17;;;;;;;-3.54;93.71;94902.38;2058592;28;20047;-60
2022/12/15 04:07:39;;;;;;;68.78;34.95;;;;;;;-3.64;93.31;94893.16;2058964;28;20054;-59
2022/12/15 04:08:40;;;;;;;79.90;37.80;;;;;;;-3.61;93.37;94901.63;2058946;28;20532;-59
2022/12/15 04:09:41;;;;;;;73.47;33.55;;;;;;;-3.63;93.06;94899.94;2058558;28;20053;-59
2022/12/15 04:10:42;;;;;;;77.07;36.47;;;;;;;-3.65;93.03;94907.56;2058568;28;20047;-59
2022/12/15 04:11:43;;;;;;;74.20;36.47;;;;;;;-3.62;93.40;94910.06;2058484;28;20477;-59
2022/12/15 04:12:44;;;;;;;74.22;33.53;;;;;;;-3.58;93.14;94913.44;2058438;28;20046;-59
2022/12/15 04:13:46;;;;;;;76.95;36.15;;;;;;;-3.57;93.29;94915.94;2058662;28;20051;-59
2022/12/15 04:14:47;;;;;;;73.43;34.63;;;;;;;-3.65;93.63;94910.09;2058726;28;20047;-59
2022/12/15 04:15:48;;;;;;;74.00;34.67;;;;;;;-3.60;93.52;94915.13;2058644;28;20048;-59
2022/12/15 04:16:49;;;;;;;72.13;34.67;;;;;;;-3.57;92.84;94920.19;2058641;28;20046;-59
2022/12/15 04:17:50;;;;;;;73.57;35.72;;;;;;;-3.64;93.46;94905.84;2058624;28;20085;-59
2022/12/15 04:20:07;;;;;;;78.75;36.20;;;;;;;-3.69;92.95;94922.81;2058489;28;20054;-59
2022/12/15 04:20:12;;;;;;;73.03;34.90;;;;;;;-3.64;92.92;94921.09;2058332;28;20059;-59
2022/12/15 04:21:14;;;;;;;71.75;34.45;;;;;;;-3.60;92.80;94920.22;2058716;28;20385;-59
2022/12/15 04:22:15;;;;;;;82.28;36.20;;;;;;;-3.64;93.39;94923.63;2058774;28;20487;-64
2022/12/15 04:23:16;;;;;;;81.35;37.83;;;;;;;-3.59;92.68;94921.88;2058669;28;20046;-64
2022/12/15 05:32:13;;;;;;;71.18;32.90;;;;;;;-3.82;93.85;94953.41;2058277;28;20050;-59
2022/12/15 05:33:14;;;;;;;73.07;34.08;;;;;;;-3.67;93.38;94976.94;2058132;28;20055;-58
2022/12/15 05:34:16;;;;;;;69.95;32.83;;;;;;;-3.66;93.44;94978.63;2058081;28;20073;-59
2022/12/15 05:35:17;;;;;;;74.60;34.65;;;;;;;-3.70;94.13;94982.88;2057814;28;20047;-58
2022/12/15 05:36:18;;;;;;;66.55;31.65;;;;;;;-3.71;93.96;94975.31;2057857;28;20043;-59
2022/12/15 05:37:19;;;;;;;73.53;34.03;;;;;;;-3.74;93.58;94982.91;2058241;28;20050;-59
2022/12/15 05:38:20;;;;;;;76.10;36.00;;;;;;;-3.67;93.46;94984.56;2057969;28;20065;-59
2022/12/15 05:39:22;;;;;;;76.25;36.33;;;;;;;-3.74;93.36;94963.47;2057989;28;20077;-59
2022/12/15 05:40:23;;;;;;;74.47;34.35;;;;;;;-3.71;94.05;94986.28;2058060;28;20062;-59
2022/12/15 05:41:24;;;;;;;77.05;35.60;;;;;;;-3.67;93.38;94987.09;2058259;28;20058;-58
2022/12/15 05:42:25;;;;;;;72.43;33.85;;;;;;;-3.64;93.75;94989.59;2058037;28;20039;-59
2022/12/15 05:43:27;;;;;;;70.68;32.30;;;;;;;-3.68;94.00;94987.97;2058068;28;20053;-59
2022/12/15 05:44:28;;;;;;;76.18;36.83;;;;;;;-3.73;93.89;94982.06;2057799;28;20050;-59
2022/12/15 05:45:29;;;;;;;72.43;34.97;;;;;;;-3.71;93.90;94988.00;2057946;28;20034;-57
2022/12/15 05:46:30;;;;;;;71.22;34.97;;;;;;;-3.70;93.62;94987.13;2058030;28;20063;-59
2022/12/15 05:47:31;;;;;;;73.93;35.80;;;;;;;-3.71;94.03;94980.38;2057897;28;20054;-64
2022/12/15 05:48:32;;;;;;;80.75;36.67;;;;;;;-3.62;94.12;94983.66;2058208;28;20062;-64
2022/12/15 05:49:34;;;;;;;79.38;37.00;;;;;;;-3.62;93.80;94981.13;2058060;28;20061;-64
2022/12/15 05:50:35;;;;;;;73.15;36.08;;;;;;;-3.63;93.45;94982.00;2057987;28;20042;-64
2022/12/15 05:51:41;;;;;;;74.95;34.35;;;;;;;-3.57;93.38;94981.94;2057878;28;20051;-64
2022/12/15 05:52:42;;;;;;;79.05;37.22;;;;;;;-3.57;93.43;94983.63;2058269;28;20054;-59
2022/12/15 05:53:43;;;;;;;83.90;37.78;;;;;;;-3.70;93.60;94961.75;2058140;28;20055;-60
2022/12/15 05:54:44;;;;;;;68.38;33.75;;;;;;;-3.66;93.05;94984.56;2058130;28;20398;-59
2022/12/15 05:55:45;;;;;;;74.68;35.42;;;;;;;-3.65;93.74;94991.31;2057976;28;20051;-60
2022/12/15 05:56:46;;;;;;;72.22;34.50;;;;;;;-3.56;93.45;94982.75;2058107;28;20046;-59
2022/12/15 05:57:54;;;;;;;73.22;33.05;;;;;;;-3.67;93.16;94990.47;2058161;28;20413;-59
2022/12/15 05:58:56;;;;;;;80.35;35.00;;;;;;;-3.68;93.16;94985.41;2058025;28;20504;-60
2022/12/15 05:59:57;;;;;;;72.72;34.42;;;;;;;-3.60;93.20;94993.81;2057189;28;20050;-60
2022/12/15 06:01:06;;;;;;;72.18;35.55;;;;;;;-3.59;93.03;94995.47;2057134;28;20061;-60
2022/12/15 06:02:07;;;;;;;66.60;33.25;;;;;;;-3.67;92.10;94997.25;2058075;28;20059;-60
2022/12/15 06:03:08;;;;;;;68.50;30.80;;;;;;;-3.70;92.90;94997.28;2057848;28;20050;-60
2022/12/15 06:04:11;;;;;;;70.70;33.85;;;;;;;-3.79;92.75;94981.28;2058039;28;20066;-60
2022/12/15 06:05:12;;;;;;;73.07;35.83;;;;;;;-3.75;93.02;94982.06;2057298;28;20058;-60
2022/12/15 06:06:13;;;;;;;75.53;35.70;;;;;;;-3.70;92.46;95003.19;2057190;28;20046;-60
2022/12/15 06:07:14;;;;;;;78.32;35.90;;;;;;;-3.75;92.02;94999.00;2057859;28;20389;-63
2022/12/15 06:08:15;;;;;;;71.28;35.22;;;;;;;-3.78;92.26;95005.78;2057892;28;20061;-63
2022/12/15 06:09:16;;;;;;;69.93;32.75;;;;;;;-3.72;92.72;95007.41;2060479;28;20054;-63
2022/12/15 06:10:17;;;;;;;68.20;33.70;;;;;;;-3.72;92.06;95002.34;2058057;28;20386;-63
2022/12/15 06:11:18;;;;;;;68.82;34.10;;;;;;;-3.75;92.44;95009.16;2058199;28;20055;-62
2022/12/15 06:12:20;;;;;;;74.68;34.92;;;;;;;-3.75;92.60;95016.75;2057707;28;20385;-55
2022/12/15 06:13:22;;;;;;;71.57;33.05;;;;;;;-3.65;93.33;95020.91;2057179;28;20050;-56
2022/12/15 06:14:23;;;;;;;68.82;33.45;;;;;;;-3.69;93.14;95016.72;2049413;28;20059;-55
2022/12/15 06:15:24;;;;;;;74.13;34.67;;;;;;;-3.74;93.08;95015.91;2057047;28;20403;-55
2022/12/15 06:16:26;;;;;;;73.05;35.83;;;;;;;-3.84;92.70;95008.38;2057958;28;20061;-56
2022/12/15 06:17:27;;;;;;;71.28;34.88;;;;;;;-3.73;92.91;95015.91;2058161;28;20061;-59
2022/12/15 06:18:30;;;;;;;72.85;35.05;;;;;;;-3.67;92.89;95012.47;2057991;28;20543;-59
2022/12/15 06:19:31;;;;;;;78.10;36.40;;;;;;;-3.69;92.75;95006.56;2057953;28;20077;-59
2022/12/15 06:20:32;;;;;;;78.05;36.45;;;;;;;-3.75;92.45;95001.53;2057601;28;20043;-59
2022/12/15 06:21:34;;;;;;;72.28;35.70;;;;;;;-3.93;92.71;94979.69;2057719;28;20050;-59
2022/12/15 06:22:35;;;;;;;76.28;36.25;;;;;;;-3.81;92.61;94998.19;2057996;28;20491;-59
2022/12/15 06:23:36;;;;;;;75.75;35.03;;;;;;;-3.79;92.42;94995.66;2057830;28;20053;-59
2022/12/15 06:24:37;;;;;;;70.38;33.47;;;;;;;-3.87;92.87;95010.94;2057798;28;20050;-59
2022/12/15 06:25:38;;;;;;;75.18;33.67;;;;;;;-3.79;92.78;95038.78;2057963;28;20046;-59
2022/12/15 06:26:40;;;;;;;77.20;33.70;;;;;;;-3.81;93.50;95043.84;2058288;28;20054;-59
2022/12/15 06:27:41;;;;;;;70.18;34.40;;;;;;;-3.83;93.39;95032.88;2058082;28;20383;-59
2022/12/15 06:28:42;;;;;;;70.90;33.15;;;;;;;-3.83;93.31;95024.44;2057894;28;20046;-59
2022/12/15 06:29:44;;;;;;;75.53;35.20;;;;;;;-3.78;92.98;95041.28;2057608;28;20051;-59
2022/12/15 06:30:45;;;;;;;82.88;37.05;;;;;;;-3.75;93.28;95044.66;2058928;28;20054;-59
2022/12/15 06:31:46;;;;;;;75.05;35.30;;;;;;;-3.77;93.35;95037.94;2059616;28;20058;-59
2022/12/15 06:32:47;;;;;;;77.97;36.83;;;;;;;-3.82;93.51;95038.81;2058925;28;20055;-59
2022/12/15 06:33:49;;;;;;;84.38;38.25;;;;;;;-3.78;93.15;95031.16;2058213;28;20058;-59
2022/12/15 06:34:50;;;;;;;79.15;36.92;;;;;;;-3.80;94.22;95032.84;2059542;28;20054;-59
2022/12/15 06:35:51;;;;;;;82.47;37.10;;;;;;;-3.81;93.79;95026.09;2059492;28;20058;-59
2022/12/15 06:36:52;;;;;;;86.10;39.53;;;;;;;-3.72;94.50;95035.34;2059583;28;20085;-59
2022/12/15 06:37:53;;;;;;;85.13;36.90;;;;;;;-3.71;93.76;95033.66;2059575;28;20059;-59
2022/12/15 06:39:00;;;;;;;84.72;39.42;;;;;;;-3.74;94.10;95032.00;2059444;28;20055;-59
2022/12/15 06:40:01;;;;;;;88.20;38.28;;;;;;;-3.72;93.70;95037.03;2059545;28;20066;-59
2022/12/15 06:41:03;;;;;;;85.68;39.15;;;;;;;-3.72;93.71;95037.03;2059480;28;20042;-58
2022/12/15 06:42:04;;;;;;;88.30;39.80;;;;;;;-3.66;93.58;95029.38;2059456;28;20047;-60
2022/12/15 06:43:08;;;;;;;83.82;36.60;;;;;;;-3.64;93.85;95040.34;2059355;28;20050;-60
2022/12/15 06:44:13;;;;;;;84.57;38.70;;;;;;;-3.80;93.52;95017.63;2059726;28;20051;-60
2022/12/15 06:45:14;;;;;;;92.57;41.53;;;;;;;-3.71;93.91;95043.81;2059133;28;20055;-60
2022/12/15 06:46:15;;;;;;;92.07;41.50;;;;;;;-3.83;94.19;95040.47;2059377;28;20046;-60
2022/12/15 06:47:16;;;;;;;87.30;39.70;;;;;;;-3.77;93.79;95034.53;2059291;28;20038;-60
2022/12/15 06:48:18;;;;;;;90.75;40.67;;;;;;;-3.83;93.97;95037.94;2059694;28;20107;-60
2022/12/15 06:49:20;;;;;;;94.85;41.50;;;;;;;-3.89;94.17;95038.00;2059002;28;20512;-60
2022/12/15 06:50:21;;;;;;;90.95;40.63;;;;;;;-3.80;93.83;95037.91;2059438;28;20050;-60
2022/12/15 06:51:22;;;;;;;92.05;39.15;;;;;;;-3.77;93.93;95037.06;2059713;28;20069;-60
2022/12/15 06:52:23;;;;;;;87.38;38.35;;;;;;;-3.74;94.23;95042.13;2059505;28;20062;-62
2022/12/15 06:53:24;;;;;;;97.65;42.45;;;;;;;-3.74;94.24;95041.28;2059354;28;20042;-63
2022/12/15 06:54:26;;;;;;;91.60;40.92;;;;;;;-3.82;94.22;95044.72;2059355;28;20059;-63
2022/12/15 06:55:27;;;;;;;90.25;38.45;;;;;;;-3.74;94.59;95049.75;2058735;28;20065;-63
2022/12/15 06:56:30;;;;;;;91.47;40.67;;;;;;;-3.90;94.23;95028.72;2059603;28;20050;-63
2022/12/15 06:57:31;;;;;;;90.93;40.58;;;;;;;-3.83;93.96;95053.16;2058875;28;20054;-63
2022/12/15 06:58:33;;;;;;;96.60;41.08;;;;;;;-3.84;93.82;95054.03;2059317;28;20153;-63
2022/12/15 06:59:34;;;;;;;84.95;37.58;;;;;;;-3.82;93.73;95061.66;2058864;28;20057;-63
2022/12/15 07:00:35;;;;;;;92.82;41.38;;;;;;;-3.94;94.18;95037.19;2059009;28;20051;-63
2022/12/15 07:01:37;;;;;;;94.75;42.15;;;;;;;-3.75;94.01;95060.72;2058686;28;20051;-63
2022/12/15 07:02:38;;;;;;;97.00;41.63;;;;;;;-3.74;93.72;95064.09;2058795;28;20081;-63
2022/12/15 07:03:39;;;;;;;95.97;42.58;;;;;;;-3.87;93.62;95069.28;2058487;28;20062;-63
2022/12/15 07:04:40;;;;;;;84.35;38.55;;;;;;;-3.89;94.08;95067.59;2058477;28;20050;-63
2022/12/15 07:05:42;;;;;;;92.78;40.35;;;;;;;-4.00;94.61;95048.22;2059104;28;20054;-63
2022/12/15 07:06:44;;;;;;;95.95;41.17;;;;;;;-3.92;94.30;95068.47;2058709;28;20077;-63
2022/12/15 07:07:45;;;;;;;88.63;38.60;;;;;;;-3.89;94.51;95077.75;2059188;28;20493;-63
2022/12/15 07:08:51;;;;;;;96.47;39.72;;;;;;;-3.89;94.36;95058.28;2058887;28;20059;-63
2022/12/15 07:09:52;;;;;;;87.32;39.28;;;;;;;-3.84;94.38;95073.50;2059240;28;20058;-63
2022/12/15 07:10:53;;;;;;;92.60;40.15;;;;;;;-3.83;94.50;95068.38;2058857;28;20394;-62
2022/12/15 07:11:54;;;;;;;96.10;42.75;;;;;;;-3.78;94.04;95070.91;2058770;28;20054;-57
2022/12/15 07:12:56;;;;;;;92.43;38.95;;;;;;;-3.74;94.31;95071.72;2059059;28;20054;-60
2022/12/15 07:13:57;;;;;;;88.57;37.75;;;;;;;-3.81;94.31;95061.63;2058856;28;20058;-60
2022/12/15 07:14:58;;;;;;;89.82;39.80;;;;;;;-3.82;94.58;95064.19;2058856;28;20406;-60
2022/12/15 07:16:00;;;;;;;85.47;38.40;;;;;;;-3.83;94.43;95054.88;2059306;28;20039;-60
2022/12/15 07:17:01;;;;;;;92.00;41.05;;;;;;;-3.80;94.18;95055.69;2058854;28;20051;-60
2022/12/15 07:18:02;;;;;;;103.78;41.63;;;;;;;-3.87;94.20;95036.31;2059365;28;20051;-60
2022/12/15 07:19:03;;;;;;;95.55;39.95;;;;;;;-3.65;94.12;95057.28;2058390;28;20059;-60
2022/12/15 07:20:05;;;;;;;96.97;41.53;;;;;;;-3.75;94.04;95047.22;2058788;28;20046;-60